Time;durP1;ratioP1;P1;durP2;ratioP2;P2;SDS_P1;SDS_P2;PMS_P1;PMS_P2;Temp;Humidity;BMP_temperature;BMP_pressure;BME280_temperature;BME280_humidity;BME280_pressure;Samples;Min_cycle;Max_cycle;Signal;HPM_P1;HPM_P2
2023/12/12 00:00:08;;;;;;;15.67;3.13;;;;;;;8.33;76.78;95032.66;4996021;28;20701;-79
2023/12/12 00:02:34;;;;;;;7.00;2.00;;;;;;;8.30;77.03;95030.34;4994797;28;20783;-79
2023/12/12 00:04:59;;;;;;;12.77;2.67;;;;;;;8.30;76.69;95032.94;4977485;28;20716;-78
2023/12/12 00:07:25;;;;;;;10.63;2.63;;;;;;;8.36;76.81;95030.63;4975604;28;20720;-78
2023/12/12 00:09:50;;;;;;;12.60;2.83;;;;;;;8.36;76.80;95034.97;4977771;28;20199;-80
2023/12/12 00:12:15;;;;;;;8.77;2.20;;;;;;;8.39;76.67;95030.34;4977390;28;20729;-80
2023/12/12 00:14:41;;;;;;;13.33;2.83;;;;;;;8.36;76.91;95045.31;4975825;28;20211;-79
2023/12/12 00:17:07;;;;;;;11.70;3.20;;;;;;;8.36;76.91;95037.56;4995470;28;20204;-79
2023/12/12 00:19:32;;;;;;;14.87;2.30;;;;;;;8.40;77.17;95026.78;4975210;28;20255;-79
2023/12/12 00:21:57;;;;;;;11.43;2.30;;;;;;;8.41;77.15;95036.19;4982226;28;20196;-79
2023/12/12 00:24:23;;;;;;;10.70;2.33;;;;;;;8.45;77.20;95029.72;4992891;28;20233;-80
2023/12/12 00:26:48;;;;;;;10.67;1.97;;;;;;;8.42;77.29;95039.56;4996882;28;20194;-79
2023/12/12 00:29:13;;;;;;;6.47;1.90;;;;;;;8.51;77.11;95038.69;4977796;28;20194;-79
2023/12/12 00:31:39;;;;;;;10.70;2.13;;;;;;;8.46;77.26;95039.13;4994319;28;20199;-79
2023/12/12 00:34:04;;;;;;;9.50;2.33;;;;;;;8.51;77.01;95047.28;4998303;28;20228;-79
2023/12/12 00:36:29;;;;;;;11.37;2.73;;;;;;;8.47;77.36;95040.75;5004101;28;20682;-78
2023/12/12 00:38:55;;;;;;;13.67;2.83;;;;;;;8.49;77.25;95044.03;5005415;28;20231;-80
2023/12/12 00:41:31;;;;;;;8.17;1.97;;;;;;;8.47;77.68;95037.34;4983400;28;20204;-78
2023/12/12 00:43:56;;;;;;;7.10;2.33;;;;;;;8.30;78.40;95048.44;4975886;28;20274;-80
2023/12/12 00:46:21;;;;;;;13.07;2.63;;;;;;;8.43;77.75;95048.97;4964791;28;20215;-81
2023/12/12 00:48:46;;;;;;;8.17;1.83;;;;;;;8.54;77.32;95053.09;4999827;28;20242;-78
2023/12/12 00:51:12;;;;;;;13.50;2.70;;;;;;;8.58;77.49;95047.50;4996354;28;20184;-80
2023/12/12 00:53:38;;;;;;;13.20;2.10;;;;;;;8.57;77.17;95056.22;4996377;28;20188;-81
2023/12/12 00:56:03;;;;;;;10.10;2.20;;;;;;;8.57;77.31;95065.75;4982566;28;20184;-80
2023/12/12 00:58:29;;;;;;;10.93;2.00;;;;;;;8.54;77.44;95053.09;5001866;28;20220;-80
2023/12/12 01:00:54;;;;;;;12.03;2.37;;;;;;;8.62;77.04;95056.59;5000186;28;20239;-80
2023/12/12 01:03:19;;;;;;;11.80;2.47;;;;;;;8.58;77.20;95050.09;4995932;28;20184;-80
2023/12/12 01:05:45;;;;;;;8.10;2.33;;;;;;;8.63;76.89;95042.69;4965135;28;20203;-79
2023/12/12 01:08:10;;;;;;;8.43;2.17;;;;;;;8.57;76.94;95050.22;4997333;28;20184;-80
2023/12/12 01:10:35;;;;;;;11.10;2.60;;;;;;;8.55;76.51;95060.72;4998206;28;20183;-80
2023/12/12 01:13:01;;;;;;;12.20;2.00;;;;;;;8.38;76.50;95056.34;4996730;28;20235;-78
2023/12/12 01:15:27;;;;;;;8.70;2.40;;;;;;;8.30;76.69;95048.44;4983802;28;20211;-79
2023/12/12 01:17:52;;;;;;;11.93;2.30;;;;;;;8.30;76.88;95054.44;4978706;28;20184;-80
2023/12/12 01:20:18;;;;;;;7.63;2.30;;;;;;;8.17;77.76;95049.63;4994652;28;20212;-80
2023/12/12 01:22:43;;;;;;;10.40;2.87;;;;;;;8.31;77.44;95063.03;4979253;28;20191;-80
2023/12/12 01:25:08;;;;;;;10.23;2.30;;;;;;;8.40;76.82;95049.25;4995503;28;20214;-81
2023/12/12 01:27:34;;;;;;;12.77;2.27;;;;;;;8.21;77.16;95039.78;4977563;28;20184;-80
2023/12/12 01:29:59;;;;;;;8.93;2.30;;;;;;;8.24;77.11;95030.00;4995953;28;20212;-79
2023/12/12 01:32:25;;;;;;;7.13;2.00;;;;;;;8.17;76.99;95023.75;4997121;28;20932;-80
2023/12/12 01:34:50;;;;;;;7.03;1.93;;;;;;;8.04;77.06;95015.56;4994191;28;20219;-80
2023/12/12 01:37:15;;;;;;;9.23;2.10;;;;;;;8.01;77.09;95026.16;4977612;28;20188;-80
2023/12/12 01:39:41;;;;;;;6.13;1.73;;;;;;;7.94;77.69;95022.53;4978643;28;20211;-80
2023/12/12 01:42:07;;;;;;;8.67;1.93;;;;;;;7.88;77.72;95012.78;4999271;28;20277;-80
2023/12/12 01:44:32;;;;;;;14.23;3.00;;;;;;;7.77;78.10;95018.13;4981676;28;20685;-80
2023/12/12 01:46:57;;;;;;;10.97;1.90;;;;;;;7.56;79.51;95023.53;4984593;28;20203;-80
2023/12/12 01:49:23;;;;;;;7.90;2.23;;;;;;;7.65;79.39;95027.84;4975612;28;20183;-79
2023/12/12 01:51:49;;;;;;;7.23;2.27;;;;;;;7.64;78.90;95026.22;4999973;28;20184;-80
2023/12/12 01:54:16;;;;;;;8.27;2.00;;;;;;;7.65;79.79;95035.59;4980017;28;20211;-79
2023/12/12 01:56:44;;;;;;;8.73;1.90;;;;;;;7.66;79.13;95025.09;4981783;28;20187;-80
2023/12/12 01:59:10;;;;;;;6.07;2.57;;;;;;;7.64;78.97;95016.69;4978869;28;20211;-79
2023/12/12 02:01:35;;;;;;;8.63;1.90;;;;;;;7.51;79.72;95008.47;4986535;28;20650;-80
2023/12/12 02:04:01;;;;;;;10.37;2.20;;;;;;;7.52;79.58;95017.84;4997941;28;20254;-80
2023/12/12 02:06:28;;;;;;;9.50;2.40;;;;;;;7.44;80.25;95009.97;4980971;28;20191;-79
2023/12/12 02:08:53;;;;;;;7.23;1.70;;;;;;;7.53;80.01;95011.72;4994845;28;20211;-80
2023/12/12 02:11:19;;;;;;;7.03;1.93;;;;;;;7.53;80.22;95003.16;4975704;28;20194;-79
2023/12/12 02:13:45;;;;;;;8.83;2.00;;;;;;;7.57;80.51;95000.13;4995690;28;20257;-79
2023/12/12 02:16:11;;;;;;;10.00;2.10;;;;;;;7.62;80.16;95000.50;4977320;28;20737;-80
2023/12/12 02:18:37;;;;;;;5.73;2.00;;;;;;;7.50;81.23;94993.06;4993388;28;20188;-81
2023/12/12 02:21:03;;;;;;;11.17;2.13;;;;;;;7.54;81.31;94984.91;4976763;28;20212;-78
2023/12/12 02:23:29;;;;;;;6.50;1.90;;;;;;;7.56;81.27;94988.16;4980836;28;20218;-79
2023/12/12 02:25:54;;;;;;;9.83;1.90;;;;;;;7.62;80.97;94990.19;4979119;28;20211;-78
2023/12/12 02:28:20;;;;;;;7.53;2.23;;;;;;;7.62;81.26;94991.94;4971594;28;20572;-80
2023/12/12 02:30:45;;;;;;;11.10;2.27;;;;;;;7.70;80.71;94996.41;4977908;28;20192;-80
2023/12/12 02:33:11;;;;;;;5.77;2.30;;;;;;;7.69;80.83;94987.03;4995865;28;20187;-79
2023/12/12 02:35:36;;;;;;;7.77;2.13;;;;;;;7.59;80.99;95002.56;4994423;28;20219;-80
2023/12/12 02:38:01;;;;;;;7.93;1.73;;;;;;;7.67;80.95;95000.06;4992751;28;20190;-79
2023/12/12 02:40:27;;;;;;;7.23;1.87;;;;;;;7.73;80.35;94993.53;4993211;28;20258;-79
2023/12/12 02:42:52;;;;;;;7.00;1.83;;;;;;;7.61;80.52;95000.66;4993059;28;20192;-79
2023/12/12 02:45:18;;;;;;;7.40;2.23;;;;;;;7.47;81.56;95003.69;4976754;28;20752;-79
2023/12/12 02:47:43;;;;;;;10.63;1.90;;;;;;;7.44;81.44;95002.22;4997456;28;20194;-79
2023/12/12 02:50:09;;;;;;;9.90;2.30;;;;;;;7.24;82.91;95000.63;4995577;28;20192;-80
2023/12/12 02:52:34;;;;;;;7.60;1.93;;;;;;;7.50;81.72;94998.25;4978799;28;20188;-79
2023/12/12 02:54:59;;;;;;;8.43;1.87;;;;;;;7.50;81.83;94996.47;4994533;28;20573;-80
2023/12/12 02:57:25;;;;;;;8.77;2.13;;;;;;;7.55;81.51;95001.22;4979481;28;20195;-79
2023/12/12 02:59:50;;;;;;;10.20;2.13;;;;;;;7.54;81.50;95000.41;4978673;28;20212;-79
2023/12/12 03:02:16;;;;;;;5.97;1.93;;;;;;;7.55;81.63;94996.88;4987146;28;20731;-80
2023/12/12 03:04:45;;;;;;;6.63;1.80;;;;;;;7.60;81.71;94994.69;4978187;28;20257;-78
2023/12/12 03:07:10;;;;;;;7.37;1.90;;;;;;;7.58;81.49;94996.56;4967405;28;20188;-79
2023/12/12 03:09:35;;;;;;;5.17;1.73;;;;;;;7.55;81.78;94991.69;4990009;28;20664;-79
2023/12/12 03:12:01;;;;;;;8.00;1.90;;;;;;;7.64;81.56;94984.88;4986958;28;20561;-80
2023/12/12 03:14:30;;;;;;;9.70;2.20;;;;;;;7.56;81.68;94983.00;4997007;28;20239;-79
2023/12/12 03:16:56;;;;;;;5.80;1.80;;;;;;;7.56;81.54;94971.84;4981918;28;20266;-78
2023/12/12 03:19:22;;;;;;;6.03;2.03;;;;;;;7.41;82.09;94968.91;4991567;28;20207;-79
2023/12/12 03:21:48;;;;;;;8.47;1.80;;;;;;;7.46;82.11;94974.47;4994291;28;20175;-80
2023/12/12 03:24:13;;;;;;;6.90;1.80;;;;;;;7.44;82.42;94973.81;4994776;28;20558;-79
2023/12/12 03:26:39;;;;;;;8.03;1.70;;;;;;;7.29;83.25;94975.22;4995054;28;20192;-78
2023/12/12 03:29:04;;;;;;;6.23;1.70;;;;;;;7.33;82.38;94968.81;4994114;28;20215;-78
2023/12/12 03:31:29;;;;;;;5.30;1.80;;;;;;;7.21;83.45;94968.16;4977535;28;20570;-78
2023/12/12 03:33:55;;;;;;;7.47;1.93;;;;;;;7.22;83.14;94963.81;4973844;28;20180;-79
2023/12/12 03:36:20;;;;;;;4.13;1.77;;;;;;;7.10;83.50;94956.25;4975056;28;20192;-80
2023/12/12 03:38:45;;;;;;;5.53;1.67;;;;;;;7.12;83.36;94947.53;4997721;28;20188;-79
2023/12/12 03:41:11;;;;;;;7.73;1.83;;;;;;;7.12;83.11;94942.38;4975847;28;20216;-80
2023/12/12 03:43:36;;;;;;;5.83;1.90;;;;;;;7.03;83.58;94937.09;4995090;28;20258;-79
2023/12/12 03:46:02;;;;;;;9.40;1.70;;;;;;;7.03;83.59;94936.28;4978111;28;20238;-79
2023/12/12 03:48:27;;;;;;;7.47;1.70;;;;;;;6.99;84.09;94928.03;4993108;28;20192;-79
2023/12/12 03:50:52;;;;;;;5.43;1.70;;;;;;;6.90;83.98;94921.13;4995542;28;20645;-78
2023/12/12 03:53:18;;;;;;;7.77;2.43;;;;;;;6.91;84.09;94919.38;4993493;28;20561;-79
2023/12/12 03:55:43;;;;;;;3.67;1.73;;;;;;;6.94;84.04;94913.91;4969926;28;20250;-79
2023/12/12 03:58:08;;;;;;;6.93;1.90;;;;;;;6.92;84.12;94915.81;4974755;28;20275;-79
2023/12/12 04:00:34;;;;;;;3.53;1.70;;;;;;;6.89;83.98;94914.34;4985841;28;20700;-79
2023/12/12 04:02:59;;;;;;;3.47;1.83;;;;;;;6.84;84.33;94918.28;4993041;28;20211;-79
2023/12/12 04:05:24;;;;;;;5.93;1.70;;;;;;;6.73;84.73;94914.09;4995233;28;20208;-79
2023/12/12 04:07:50;;;;;;;6.47;2.20;;;;;;;6.73;84.86;94921.84;4979425;28;20583;-79
2023/12/12 04:10:15;;;;;;;6.67;1.60;;;;;;;6.72;85.08;94915.06;4977097;28;20278;-78
2023/12/12 04:12:40;;;;;;;9.90;1.90;;;;;;;6.58;85.76;94921.47;4977586;28;20207;-79
2023/12/12 04:15:06;;;;;;;5.90;1.67;;;;;;;6.61;86.03;94917.78;4992727;28;20278;-78
2023/12/12 04:17:31;;;;;;;6.60;2.10;;;;;;;6.56;87.01;94912.25;4994838;28;20258;-79
2023/12/12 04:19:57;;;;;;;8.63;1.90;;;;;;;6.61;87.53;94912.63;4975236;28;20254;-80
2023/12/12 04:22:22;;;;;;;6.10;2.40;;;;;;;6.55;87.43;94918.34;4994501;28;20195;-79
2023/12/12 04:24:48;;;;;;;4.43;3.07;;;;;;;6.49;88.69;94914.56;4977177;28;20219;-79
2023/12/12 04:27:13;;;;;;;8.03;3.27;;;;;;;6.53;89.07;94921.06;4993845;28;20266;-80
2023/12/12 04:29:39;;;;;;;7.87;3.07;;;;;;;6.60;88.60;94909.22;4976363;28;20425;-78
2023/12/12 04:32:05;;;;;;;7.40;2.50;;;;;;;6.63;88.70;94906.41;4997117;28;20634;-79
2023/12/12 04:34:31;;;;;;;9.27;2.07;;;;;;;6.58;88.74;94912.91;4986947;28;20242;-79
2023/12/12 04:36:57;;;;;;;5.47;1.93;;;;;;;6.65;88.58;94908.84;4976048;28;20191;-80
2023/12/12 04:39:22;;;;;;;6.17;2.00;;;;;;;6.63;88.91;94914.13;4977084;28;21193;-79
2023/12/12 04:41:47;;;;;;;4.93;1.47;;;;;;;6.74;88.70;94908.81;4979106;28;20242;-79
2023/12/12 04:44:13;;;;;;;5.60;2.47;;;;;;;6.66;88.48;94903.53;4996724;28;20271;-79
2023/12/12 04:46:38;;;;;;;3.60;1.77;;;;;;;6.70;88.45;94901.47;4982470;28;20201;-80
2023/12/12 04:49:04;;;;;;;8.70;2.43;;;;;;;6.55;89.55;94908.84;4992780;28;20677;-79
2023/12/12 04:51:29;;;;;;;4.23;1.90;;;;;;;6.50;89.87;94904.09;4992298;28;20219;-79
2023/12/12 04:53:55;;;;;;;5.50;2.10;;;;;;;6.73;89.11;94893.47;4979887;28;20249;-78
2023/12/12 04:56:20;;;;;;;3.67;2.10;;;;;;;6.77;88.96;94903.34;4992655;28;20232;-79
2023/12/12 04:58:46;;;;;;;4.80;2.40;;;;;;;6.79;89.34;94898.84;4969244;28;20231;-80
2023/12/12 05:01:14;;;;;;;4.53;2.20;;;;;;;6.72;89.97;94895.25;4976506;28;20219;-79
2023/12/12 05:03:39;;;;;;;3.73;1.80;;;;;;;6.90;89.46;94905.63;4995014;28;20188;-79
2023/12/12 05:06:04;;;;;;;5.27;2.50;;;;;;;6.89;89.34;94905.75;4993026;28;20192;-79
2023/12/12 05:08:30;;;;;;;4.23;2.07;;;;;;;6.97;89.22;94906.69;4975480;28;20657;-78
2023/12/12 05:10:55;;;;;;;4.07;1.60;;;;;;;6.88;89.66;94901.56;4980827;28;20279;-78
2023/12/12 05:13:20;;;;;;;7.80;2.83;;;;;;;7.05;89.32;94900.81;4991215;28;20195;-79
2023/12/12 05:15:46;;;;;;;7.20;1.80;;;;;;;7.14;88.86;94894.81;4981716;28;20275;-80
2023/12/12 05:18:11;;;;;;;4.83;1.70;;;;;;;7.10;88.31;94894.28;4996069;28;20183;-78
2023/12/12 05:20:36;;;;;;;3.93;1.60;;;;;;;7.14;88.14;94894.00;4985405;28;20219;-79
2023/12/12 05:23:02;;;;;;;6.43;2.40;;;;;;;6.98;88.71;94890.25;5011948;28;20203;-78
2023/12/12 05:25:27;;;;;;;6.77;2.20;;;;;;;6.97;88.69;94898.94;5002815;28;20204;-82
2023/12/12 05:27:53;;;;;;;6.53;2.60;;;;;;;7.12;88.42;94898.50;4993159;28;20299;-80
2023/12/12 05:30:19;;;;;;;5.20;1.80;;;;;;;7.05;88.55;94885.31;4991622;28;20191;-81
2023/12/12 05:32:44;;;;;;;4.70;1.97;;;;;;;7.16;87.87;94876.59;4997736;28;20267;-80
2023/12/12 05:35:10;;;;;;;9.20;2.03;;;;;;;7.13;88.41;94863.97;4996282;28;20231;-80
2023/12/12 05:37:36;;;;;;;10.23;1.80;;;;;;;7.14;87.96;94866.41;4998494;28;20191;-79
2023/12/12 05:40:02;;;;;;;4.70;2.20;;;;;;;7.20;87.35;94865.84;4990223;28;20276;-80
2023/12/12 05:42:28;;;;;;;7.93;2.33;;;;;;;7.26;87.14;94861.88;4995530;28;20184;-80
2023/12/12 05:44:53;;;;;;;6.37;2.40;;;;;;;7.20;87.36;94862.44;4994249;28;20204;-80
2023/12/12 05:47:18;;;;;;;4.40;2.57;;;;;;;7.22;87.24;94870.84;4973930;28;20188;-80
2023/12/12 05:49:44;;;;;;;6.63;2.30;;;;;;;7.25;87.39;94873.97;4998919;28;20183;-80
2023/12/12 05:52:10;;;;;;;6.23;2.90;;;;;;;7.32;87.71;94869.03;4979319;28;20200;-80
2023/12/12 05:54:36;;;;;;;3.70;2.53;;;;;;;7.33;86.63;94883.56;4977274;28;20207;-80
2023/12/12 05:57:01;;;;;;;6.67;3.93;;;;;;;7.28;86.97;94881.44;4974425;28;21268;-79
2023/12/12 05:59:27;;;;;;;6.40;2.97;;;;;;;7.29;86.73;94871.91;4994118;28;20268;-80
2023/12/12 06:01:52;;;;;;;6.33;2.73;;;;;;;7.35;86.89;94869.56;4993652;28;20211;-79
2023/12/12 06:04:17;;;;;;;6.13;2.30;;;;;;;7.34;86.24;94869.72;4965615;28;20212;-80
2023/12/12 06:06:43;;;;;;;4.97;1.97;;;;;;;7.37;86.49;94864.25;4979650;28;20254;-80
2023/12/12 06:09:12;;;;;;;6.37;1.77;;;;;;;7.23;86.38;94867.31;4993612;28;20211;-79
2023/12/12 06:11:38;;;;;;;6.67;2.10;;;;;;;7.33;86.40;94855.16;4990778;28;20195;-80
2023/12/12 06:14:05;;;;;;;7.97;2.00;;;;;;;7.33;85.80;94855.16;4993335;28;20208;-78
2023/12/12 06:16:30;;;;;;;4.17;1.73;;;;;;;7.33;86.46;94853.41;4994357;28;20206;-78
2023/12/12 06:18:56;;;;;;;6.13;2.10;;;;;;;7.28;85.83;94857.38;4992817;28;20187;-79
2023/12/12 06:21:21;;;;;;;5.17;1.90;;;;;;;7.28;86.09;94855.59;4994491;28;20257;-79
2023/12/12 06:23:47;;;;;;;5.73;2.23;;;;;;;7.20;85.83;94852.13;4978237;28;20191;-80
2023/12/12 06:26:14;;;;;;;5.57;2.13;;;;;;;7.18;86.30;94859.19;4978719;28;20183;-79
2023/12/12 06:28:39;;;;;;;9.23;2.73;;;;;;;7.21;86.41;94853.72;4965465;28;20330;-78
2023/12/12 06:31:05;;;;;;;7.70;3.03;;;;;;;7.20;86.00;94852.13;4996858;28;20226;-80
2023/12/12 06:33:30;;;;;;;4.87;3.10;;;;;;;7.13;85.93;94840.72;4979889;28;20184;-80
2023/12/12 06:35:56;;;;;;;5.30;2.77;;;;;;;7.16;85.89;94828.34;4999066;28;20211;-80
2023/12/12 06:38:22;;;;;;;8.73;3.83;;;;;;;6.98;86.78;94820.56;4998291;28;20195;-79
2023/12/12 06:40:47;;;;;;;6.90;3.20;;;;;;;7.07;87.00;94817.13;4983441;28;20265;-79
2023/12/12 06:43:12;;;;;;;5.80;3.00;;;;;;;7.16;86.16;94830.94;4999746;28;20554;-79
2023/12/12 06:45:38;;;;;;;9.30;3.30;;;;;;;7.02;87.09;94819.31;4999170;28;20212;-78
2023/12/12 06:48:03;;;;;;;6.30;2.90;;;;;;;6.99;87.15;94808.47;4999706;28;20258;-80
2023/12/12 06:50:29;;;;;;;6.90;3.10;;;;;;;7.00;86.35;94816.06;4999200;28;20192;-79
2023/12/12 06:52:54;;;;;;;8.20;3.03;;;;;;;6.90;86.96;94822.25;4987735;28;20195;-80
2023/12/12 06:55:20;;;;;;;6.37;3.20;;;;;;;6.86;87.12;94829.44;4983432;28;20294;-80
2023/12/12 06:57:45;;;;;;;8.40;3.30;;;;;;;6.83;86.75;94829.72;4980864;28;20195;-79
2023/12/12 07:00:12;;;;;;;9.17;3.20;;;;;;;6.77;86.75;94828.53;4981707;28;20215;-79
2023/12/12 07:02:37;;;;;;;6.87;2.73;;;;;;;6.56;88.86;94833.09;4997981;28;20239;-78
2023/12/12 07:05:04;;;;;;;5.03;2.80;;;;;;;6.57;89.44;94832.13;4990594;28;20219;-78
2023/12/12 07:07:30;;;;;;;7.93;2.83;;;;;;;6.68;88.62;94831.13;4997334;28;20464;-79
2023/12/12 07:09:55;;;;;;;6.63;2.87;;;;;;;6.56;89.24;94830.50;4995979;28;20184;-79
2023/12/12 07:12:20;;;;;;;5.53;3.10;;;;;;;6.57;89.68;94842.44;4993669;28;20567;-78
2023/12/12 07:14:46;;;;;;;3.73;2.70;;;;;;;6.49;90.75;94858.63;4994445;28;20258;-79
2023/12/12 07:17:11;;;;;;;4.23;2.70;;;;;;;6.69;89.34;94856.78;4976726;28;20188;-80
2023/12/12 07:19:36;;;;;;;4.67;2.40;;;;;;;6.68;90.02;94860.31;4977877;28;20876;-78
2023/12/12 07:22:02;;;;;;;4.07;2.00;;;;;;;6.73;89.60;94855.56;4994375;28;20690;-80
2023/12/12 07:24:28;;;;;;;9.47;3.07;;;;;;;6.63;89.88;94857.38;4996497;28;20215;-79
2023/12/12 07:26:53;;;;;;;3.87;1.90;;;;;;;6.74;89.49;94843.47;4995750;28;20187;-79
2023/12/12 07:29:19;;;;;;;3.87;1.77;;;;;;;6.90;88.83;94841.13;4993689;28;20219;-79
2023/12/12 07:31:48;;;;;;;6.00;3.07;;;;;;;6.84;88.85;94826.19;4978522;28;20194;-78
2023/12/12 07:34:13;;;;;;;2.60;2.07;;;;;;;6.92;88.57;94820.31;4998812;28;20235;-79
2023/12/12 07:36:39;;;;;;;7.00;2.33;;;;;;;6.90;89.11;94820.47;4963200;28;20188;-79
2023/12/12 07:39:05;;;;;;;4.50;2.03;;;;;;;6.81;88.94;94809.22;4974719;28;20195;-79
2023/12/12 07:41:34;;;;;;;5.67;2.20;;;;;;;7.06;88.78;94833.53;4976233;28;20181;-79
2023/12/12 07:44:00;;;;;;;4.47;2.50;;;;;;;6.99;88.94;94829.94;4980671;28;20303;-79
2023/12/12 07:46:25;;;;;;;4.40;2.00;;;;;;;6.97;89.70;94838.75;4993669;28;20191;-79
2023/12/12 07:48:51;;;;;;;3.90;2.23;;;;;;;7.14;89.19;94830.25;4996274;28;20191;-79
2023/12/12 07:51:17;;;;;;;2.87;2.00;;;;;;;7.28;88.93;94818.63;4977861;28;20175;-79
2023/12/12 07:53:42;;;;;;;5.67;2.57;;;;;;;7.31;88.52;94816.56;4983820;28;20680;-78
2023/12/12 07:56:08;;;;;;;3.57;1.97;;;;;;;7.08;89.90;94825.69;4996876;28;20188;-79
2023/12/12 07:58:33;;;;;;;2.50;2.13;;;;;;;7.25;89.61;94824.91;4978096;28;20199;-81
2023/12/12 08:00:59;;;;;;;7.53;2.30;;;;;;;7.34;89.06;94813.72;4993970;28;20263;-79
2023/12/12 08:03:24;;;;;;;5.80;2.47;;;;;;;7.38;89.13;94803.88;4996887;28;20191;-79
2023/12/12 08:05:49;;;;;;;5.83;2.10;;;;;;;7.38;88.81;94791.78;4993445;28;20208;-79
2023/12/12 08:08:15;;;;;;;6.57;2.93;;;;;;;7.28;89.51;94798.78;4997359;28;20677;-80
2023/12/12 08:10:41;;;;;;;4.40;1.93;;;;;;;7.44;89.25;94792.97;4971882;28;20184;-79
2023/12/12 08:13:08;;;;;;;3.87;2.10;;;;;;;7.45;89.18;94779.09;4985189;28;20196;-79
2023/12/12 08:15:33;;;;;;;3.03;1.97;;;;;;;7.48;88.74;94776.22;4995991;28;20227;-79
2023/12/12 08:17:59;;;;;;;4.80;1.97;;;;;;;7.54;88.09;94764.47;4976752;28;20187;-80
2023/12/12 08:20:25;;;;;;;6.37;2.20;;;;;;;7.61;87.59;94750.81;4979963;28;20620;-79
2023/12/12 08:22:51;;;;;;;4.17;2.10;;;;;;;7.67;87.02;94747.63;4996055;28;20235;-78
2023/12/12 08:25:16;;;;;;;4.43;2.30;;;;;;;7.73;86.84;94755.75;4999009;28;20682;-79
2023/12/12 08:27:41;;;;;;;4.13;2.13;;;;;;;7.59;87.17;94768.22;4988484;28;20195;-79
2023/12/12 08:30:08;;;;;;;4.53;2.00;;;;;;;7.54;88.20;94765.28;4999224;28;20549;-79
2023/12/12 08:32:33;;;;;;;4.60;2.23;;;;;;;7.77;87.29;94755.28;4995729;28;20218;-79
2023/12/12 08:34:58;;;;;;;4.60;2.20;;;;;;;7.70;88.33;94750.91;4978929;28;20202;-79
2023/12/12 08:37:24;;;;;;;6.83;2.63;;;;;;;7.80;87.86;94759.38;4996056;28;20274;-82
2023/12/12 08:39:49;;;;;;;2.80;2.23;;;;;;;7.85;87.90;94752.78;4998592;28;20215;-78
2023/12/12 08:42:15;;;;;;;5.10;2.07;;;;;;;7.90;87.34;94742.00;4973003;28;20676;-80
2023/12/12 08:44:41;;;;;;;5.83;1.87;;;;;;;7.83;87.02;94741.78;4977486;28;20215;-79
2023/12/12 08:47:09;;;;;;;4.67;2.30;;;;;;;7.74;88.08;94740.09;4993884;28;20280;-79
2023/12/12 08:49:37;;;;;;;6.63;2.00;;;;;;;7.82;87.89;94749.69;4993750;28;20192;-79
2023/12/12 08:52:06;;;;;;;4.77;2.13;;;;;;;7.88;87.79;94755.09;4995220;28;20184;-78
2023/12/12 08:54:33;;;;;;;4.63;2.30;;;;;;;7.89;87.94;94761.06;4994701;28;20218;-78
2023/12/12 08:56:58;;;;;;;2.63;1.80;;;;;;;7.89;87.94;94768.81;4995915;28;20201;-80
2023/12/12 08:59:24;;;;;;;5.03;2.27;;;;;;;7.91;88.55;94767.69;4993660;28;20687;-81
2023/12/12 09:01:49;;;;;;;4.80;1.87;;;;;;;8.06;87.87;94764.56;4992150;28;20257;-79
2023/12/12 09:04:16;;;;;;;1.97;1.50;;;;;;;8.03;87.71;94763.09;4959480;28;20622;-79
2023/12/12 09:06:44;;;;;;;4.13;2.17;;;;;;;8.02;88.38;94764.03;4988728;28;20191;-80
2023/12/12 09:09:11;;;;;;;4.50;1.87;;;;;;;7.78;89.18;94763.88;4994248;28;20194;-80
2023/12/12 09:11:37;;;;;;;2.57;1.77;;;;;;;7.95;88.81;94766.44;4992746;28;20241;-79
2023/12/12 09:14:02;;;;;;;2.67;2.10;;;;;;;8.10;87.88;94764.09;4995177;28;20842;-79
2023/12/12 09:16:28;;;;;;;2.83;1.50;;;;;;;8.04;88.61;94753.56;4989178;28;20661;-79
2023/12/12 09:18:53;;;;;;;3.70;1.70;;;;;;;8.11;88.04;94746.81;4995943;28;20195;-80
2023/12/12 09:21:19;;;;;;;3.23;1.37;;;;;;;8.19;87.57;94749.47;4992826;28;20820;-79
2023/12/12 09:23:44;;;;;;;4.10;1.90;;;;;;;8.19;87.49;94742.50;4972301;28;20188;-82
2023/12/12 09:26:16;;;;;;;2.03;1.43;;;;;;;8.26;87.86;94744.50;4991660;28;20202;-80
2023/12/12 09:28:42;;;;;;;2.50;1.73;;;;;;;8.15;88.30;94741.19;4975102;28;20560;-80
2023/12/12 09:31:11;;;;;;;4.00;1.70;;;;;;;8.16;88.13;94736.84;4991111;28;20650;-79
2023/12/12 09:33:37;;;;;;;4.30;1.70;;;;;;;8.11;88.42;94739.06;4959782;28;20184;-78
2023/12/12 09:36:04;;;;;;;3.60;1.53;;;;;;;8.24;88.16;94729.94;4991230;28;20286;-80
2023/12/12 09:38:30;;;;;;;2.53;2.00;;;;;;;8.26;88.42;94727.19;4990772;28;20195;-79
2023/12/12 09:40:56;;;;;;;3.57;1.77;;;;;;;8.25;88.48;94723.00;4975571;28;20242;-80
2023/12/12 09:43:26;;;;;;;2.63;1.63;;;;;;;8.24;89.00;94717.00;4960716;28;20565;-79
2023/12/12 09:45:55;;;;;;;2.43;1.60;;;;;;;8.28;88.73;94701.16;4973609;28;20215;-80
2023/12/12 09:48:21;;;;;;;4.77;1.90;;;;;;;8.28;88.90;94701.16;4973683;28;20202;-80
2023/12/12 09:50:47;;;;;;;3.87;1.97;;;;;;;8.24;89.16;94711.84;4977083;28;20251;-79
2023/12/12 09:53:13;;;;;;;3.20;1.70;;;;;;;8.15;89.85;94705.00;4991647;28;20202;-80
2023/12/12 09:55:39;;;;;;;5.17;2.93;;;;;;;8.32;89.50;94690.38;4978842;28;20216;-80
2023/12/12 09:58:04;;;;;;;4.90;2.40;;;;;;;8.13;90.53;94681.06;4984072;28;20192;-80
2023/12/12 10:00:30;;;;;;;3.97;2.30;;;;;;;8.26;90.16;94680.63;4978627;28;20738;-80
2023/12/12 10:02:58;;;;;;;3.30;2.20;;;;;;;8.36;89.72;94675.38;4989688;28;20207;-79
2023/12/12 10:05:26;;;;;;;3.37;1.93;;;;;;;8.19;90.47;94667.50;4996989;28;20294;-78
2023/12/12 10:07:53;;;;;;;6.27;3.13;;;;;;;8.21;90.82;94662.97;4979834;28;20188;-80
2023/12/12 10:10:18;;;;;;;4.20;2.60;;;;;;;8.12;91.85;94658.72;5005690;28;20190;-79
2023/12/12 10:12:47;;;;;;;4.20;2.50;;;;;;;8.25;90.81;94658.31;5018674;28;20192;-80
2023/12/12 10:15:24;;;;;;;4.80;3.57;;;;;;;8.19;91.83;94644.22;5020132;28;20192;-80
2023/12/12 10:17:57;;;;;;;2.90;2.43;;;;;;;8.02;94.20;94633.97;4993233;28;20198;-79
2023/12/12 10:20:25;;;;;;;2.40;1.93;;;;;;;8.05;96.33;94631.09;4978341;28;20234;-81
2023/12/12 10:22:52;;;;;;;2.60;1.90;;;;;;;8.15;96.88;94631.78;4982100;28;20202;-80
2023/12/12 10:25:18;;;;;;;2.20;1.57;;;;;;;8.17;98.49;94635.81;4982787;28;20215;-81
2023/12/12 10:27:43;;;;;;;2.80;1.80;;;;;;;8.18;98.39;94624.50;4998506;28;20606;-80
2023/12/12 10:30:13;;;;;;;2.10;1.63;;;;;;;8.17;99.19;94615.13;5000058;28;20215;-81
2023/12/12 10:32:39;;;;;;;1.70;1.20;;;;;;;8.10;100.00;94614.13;4968265;28;20191;-81
2023/12/12 10:35:05;;;;;;;2.23;1.53;;;;;;;8.29;100.00;94618.25;4981747;28;20241;-81
2023/12/12 10:37:30;;;;;;;2.53;1.70;;;;;;;8.36;100.00;94628.81;4996969;28;20184;-81
2023/12/12 10:39:56;;;;;;;2.80;1.33;;;;;;;8.59;100.00;94623.88;4996718;28;20866;-80
2023/12/12 10:42:21;;;;;;;2.20;1.33;;;;;;;8.72;100.00;94630.22;4962942;28;20542;-80
2023/12/12 10:44:47;;;;;;;2.77;1.40;;;;;;;8.69;100.00;94620.19;4995949;28;20196;-80
2023/12/12 10:47:14;;;;;;;2.00;1.80;;;;;;;8.97;100.00;94627.66;4982337;28;20196;-80
2023/12/12 10:49:42;;;;;;;1.23;1.00;;;;;;;8.85;100.00;94621.19;4964724;28;20194;-81
2023/12/12 10:52:08;;;;;;;1.50;1.40;;;;;;;9.14;100.00;94612.97;4995193;28;20187;-81
2023/12/12 10:54:35;;;;;;;1.63;1.53;;;;;;;9.21;99.27;94617.34;4979673;28;20307;-79
2023/12/12 10:57:01;;;;;;;2.17;1.67;;;;;;;9.20;98.74;94627.88;4975005;28;20196;-80
2023/12/12 10:59:28;;;;;;;3.00;2.80;;;;;;;9.03;99.37;94621.88;4978108;28;20233;-80
2023/12/12 11:01:53;;;;;;;3.10;2.47;;;;;;;9.12;98.23;94618.31;4961870;28;20613;-80
2023/12/12 11:04:21;;;;;;;2.77;2.37;;;;;;;9.07;97.96;94612.78;4994077;28;20223;-79
2023/12/12 11:06:46;;;;;;;3.60;2.20;;;;;;;9.06;98.08;94598.22;4998730;28;20191;-80
2023/12/12 11:09:13;;;;;;;2.83;2.63;;;;;;;9.04;97.44;94580.25;5000579;28;20180;-80
2023/12/12 11:11:40;;;;;;;3.10;2.80;;;;;;;9.09;96.63;94569.41;4997804;28;20279;-80
2023/12/12 11:14:07;;;;;;;2.90;2.60;;;;;;;9.10;97.29;94578.81;4979110;28;20219;-79
2023/12/12 11:16:33;;;;;;;4.63;2.33;;;;;;;9.00;97.34;94572.97;4997125;28;20222;-80
2023/12/12 11:19:00;;;;;;;2.63;2.10;;;;;;;9.00;98.23;94567.78;4969535;28;20187;-79
2023/12/12 11:21:45;;;;;;;3.57;2.00;;;;;;;9.25;97.18;94559.03;4997017;28;20227;-79
2023/12/12 11:24:10;;;;;;;2.33;2.07;;;;;;;9.28;97.15;94563.91;4977265;28;20279;-79
2023/12/12 11:26:36;;;;;;;1.90;1.70;;;;;;;9.32;96.33;94560.00;4982453;28;20219;-79
2023/12/12 11:29:04;;;;;;;2.70;1.80;;;;;;;9.22;97.08;94563.75;4986547;28;20556;-80
2023/12/12 11:31:34;;;;;;;2.33;1.70;;;;;;;9.06;96.89;94554.19;4997260;28;20188;-79
2023/12/12 11:34:07;;;;;;;2.03;1.93;;;;;;;9.07;97.28;94555.81;4981821;28;20271;-80